createdAt,value
2022-12-16T00:01:25.604Z,14.27
2022-12-16T00:03:55.862Z,13.20
2022-12-16T00:06:25.586Z,13.17
2022-12-16T00:08:52.955Z,15.27
2022-12-16T00:11:22.418Z,13.07
2022-12-16T00:13:49.394Z,13.67
2022-12-16T00:16:20.461Z,14.67
2022-12-16T00:18:48.488Z,14.23
2022-12-16T00:21:18.416Z,14.30
2022-12-16T00:23:45.819Z,12.43
2022-12-16T00:26:13.767Z,13.50
2022-12-16T00:28:43.655Z,13.30
2022-12-16T00:31:11.365Z,13.80
2022-12-16T00:33:38.648Z,13.97
2022-12-16T00:36:06.769Z,14.90
2022-12-16T00:38:33.715Z,13.80
2022-12-16T00:41:01.012Z,14.60
2022-12-16T00:43:27.961Z,13.23
2022-12-16T00:45:56.313Z,14.27
2022-12-16T00:48:23.468Z,13.23
2022-12-16T00:50:52.666Z,13.40
2022-12-16T00:53:23.705Z,14.43
2022-12-16T00:55:50.717Z,14.00
2022-12-16T00:58:19.028Z,13.37
2022-12-16T01:00:46.062Z,12.90
2022-12-16T01:03:21.059Z,13.23
2022-12-16T01:05:49.185Z,14.00
2022-12-16T01:08:16.450Z,13.17
2022-12-16T01:10:49.378Z,14.13
2022-12-16T01:13:17.763Z,13.53
2022-12-16T01:15:44.729Z,13.70
2022-12-16T01:18:11.758Z,13.10
2022-12-16T01:20:40.235Z,14.03
2022-12-16T01:23:07.326Z,13.53
2022-12-16T01:25:35.375Z,13.90
2022-12-16T01:28:02.334Z,12.27
2022-12-16T01:30:29.431Z,12.90
2022-12-16T01:32:56.369Z,15.23
2022-12-16T01:35:52.002Z,13.43
2022-12-16T01:38:11.642Z,14.57
2022-12-16T01:40:38.583Z,14.20
2022-12-16T01:43:12.679Z,14.20
2022-12-16T01:45:40.182Z,15.00
2022-12-16T01:48:21.343Z,14.37
2022-12-16T01:50:52.451Z,13.30
2022-12-16T01:53:21.886Z,14.67
2022-12-16T01:55:54.678Z,14.63
2022-12-16T01:58:26.789Z,13.57
2022-12-16T02:00:54.433Z,13.83
2022-12-16T02:03:22.576Z,15.00
2022-12-16T02:05:51.097Z,15.13
2022-12-16T02:08:21.036Z,15.67
2022-12-16T02:11:11.973Z,15.27
2022-12-16T02:14:09.023Z,16.60
2022-12-16T02:16:49.874Z,14.37
2022-12-16T02:20:03.829Z,15.90
2022-12-16T02:22:58.341Z,15.53
2022-12-16T02:25:57.954Z,15.40
2022-12-16T02:28:55.376Z,16.00
2022-12-16T02:31:34.893Z,15.63
2022-12-16T02:34:21.559Z,14.87
2022-12-16T02:37:08.122Z,15.43
2022-12-16T02:39:39.449Z,14.70
2022-12-16T02:42:19.451Z,15.07
2022-12-16T02:45:02.931Z,16.60
2022-12-16T02:47:32.931Z,14.97
2022-12-16T02:50:00.558Z,14.27
2022-12-16T02:52:32.958Z,15.83
2022-12-16T02:55:06.232Z,13.63
2022-12-16T02:58:08.983Z,16.13
2022-12-16T03:00:50.613Z,15.00
2022-12-16T03:03:30.869Z,14.17
2022-12-16T03:06:01.841Z,15.53
2022-12-16T03:08:35.558Z,15.27
2022-12-16T03:11:08.181Z,14.60
2022-12-16T03:13:43.723Z,15.37
2022-12-16T03:16:16.188Z,16.67
2022-12-16T03:18:54.961Z,16.00
2022-12-16T03:21:27.442Z,15.17
2022-12-16T03:24:00.457Z,16.73
2022-12-16T03:26:35.172Z,16.20
2022-12-16T03:29:09.954Z,15.30
2022-12-16T03:31:42.700Z,15.23
2022-12-16T03:34:20.395Z,14.53
2022-12-16T03:36:56.510Z,15.17
2022-12-16T03:39:26.978Z,16.43
2022-12-16T03:41:55.968Z,16.57
2022-12-16T03:44:25.233Z,15.00
2022-12-16T03:46:52.452Z,17.53
2022-12-16T03:49:22.233Z,18.13
2022-12-16T03:51:49.212Z,15.53
2022-12-16T03:54:16.214Z,16.67
2022-12-16T03:56:43.189Z,16.57
2022-12-16T03:59:10.903Z,17.13
2022-12-16T04:01:37.920Z,16.80
2022-12-16T04:04:05.273Z,16.50
2022-12-16T04:06:33.751Z,16.03
2022-12-16T04:09:00.715Z,15.57
2022-12-16T04:12:03.231Z,16.50
2022-12-16T04:14:53.265Z,15.60
2022-12-16T04:17:39.241Z,17.40
2022-12-16T04:20:34.045Z,15.43
2022-12-16T04:23:22.587Z,16.90
2022-12-16T04:25:50.322Z,15.50
2022-12-16T04:28:17.508Z,14.90
2022-12-16T04:30:44.518Z,14.93
2022-12-16T04:33:33.248Z,15.87
2022-12-16T04:36:19.132Z,15.33
2022-12-16T04:39:05.877Z,14.90
2022-12-16T04:41:51.389Z,15.60
2022-12-16T04:44:37.457Z,14.93
2022-12-16T04:47:23.286Z,15.47
2022-12-16T04:50:08.816Z,16.13
2022-12-16T04:52:54.669Z,18.97
2022-12-16T04:55:41.491Z,16.37
2022-12-16T04:58:27.180Z,16.23
2022-12-16T05:01:12.675Z,15.70
2022-12-16T05:03:58.427Z,14.73
2022-12-16T05:06:43.558Z,16.73
2022-12-16T05:09:29.021Z,14.60
2022-12-16T05:12:15.980Z,15.40
2022-12-16T05:15:01.831Z,15.97
2022-12-16T05:17:47.654Z,14.70
2022-12-16T05:20:33.535Z,15.53
2022-12-16T05:23:18.894Z,16.03
2022-12-16T05:26:04.932Z,14.27
2022-12-16T05:28:52.134Z,15.30
2022-12-16T05:31:38.175Z,15.53
2022-12-16T05:34:23.977Z,15.03
2022-12-16T05:37:09.391Z,15.47
2022-12-16T05:39:56.570Z,14.83
2022-12-16T05:42:42.081Z,15.80
2022-12-16T05:45:29.652Z,14.87
2022-12-16T05:48:15.191Z,15.47
2022-12-16T05:51:00.749Z,14.73
2022-12-16T05:53:46.291Z,14.97
2022-12-16T05:56:31.850Z,15.67
2022-12-16T05:59:17.178Z,15.10
2022-12-16T06:02:04.243Z,14.77
2022-12-16T06:04:50.153Z,15.83
2022-12-16T06:07:35.844Z,14.83
2022-12-16T06:10:36.966Z,14.53
2022-12-16T06:13:22.424Z,16.23
2022-12-16T06:16:09.133Z,14.57
2022-12-16T06:18:56.334Z,14.40
2022-12-16T06:21:42.791Z,15.77
2022-12-16T06:24:28.792Z,16.07
2022-12-16T06:27:14.692Z,16.33
2022-12-16T06:30:00.189Z,16.10
2022-12-16T06:32:45.731Z,14.83
2022-12-16T06:35:32.556Z,16.73
2022-12-16T06:38:18.057Z,16.33
2022-12-16T06:41:03.439Z,16.23
2022-12-16T06:43:48.998Z,15.97
2022-12-16T06:46:34.591Z,15.33
2022-12-16T06:49:20.104Z,15.57
2022-12-16T06:52:06.862Z,14.83
2022-12-16T06:54:52.501Z,15.47
2022-12-16T06:57:37.902Z,15.53
2022-12-16T07:00:27.385Z,15.83
2022-12-16T07:03:16.921Z,16.03
2022-12-16T07:06:02.848Z,15.70
2022-12-16T07:08:49.531Z,16.30
2022-12-16T07:11:35.275Z,16.27
2022-12-16T07:14:21.124Z,17.23
2022-12-16T07:17:06.435Z,17.67
2022-12-16T07:19:52.035Z,18.13
2022-12-16T07:22:37.770Z,19.73
2022-12-16T07:25:26.223Z,19.17
2022-12-16T07:28:15.534Z,19.67
2022-12-16T07:31:02.464Z,24.13
2022-12-16T07:33:47.919Z,25.20
2022-12-16T07:36:33.628Z,21.23
2022-12-16T07:39:19.135Z,20.53
2022-12-16T07:42:05.949Z,18.33
2022-12-16T07:44:51.597Z,19.87
2022-12-16T07:47:36.963Z,19.50
2022-12-16T07:50:23.524Z,19.67
2022-12-16T07:53:13.572Z,22.07
2022-12-16T07:55:58.845Z,20.57
2022-12-16T07:58:46.634Z,20.60
2022-12-16T08:01:32.726Z,20.70
2022-12-16T08:04:18.495Z,20.67
2022-12-16T08:07:04.671Z,20.80
2022-12-16T08:09:50.168Z,20.10
2022-12-16T08:12:36.975Z,20.93
2022-12-16T08:15:25.618Z,22.57
2022-12-16T08:18:12.354Z,19.10
2022-12-16T08:20:58.143Z,20.03
2022-12-16T08:23:44.049Z,18.40
2022-12-16T08:26:29.708Z,20.00
2022-12-16T08:29:42.415Z,20.27
2022-12-16T08:32:22.756Z,19.33
2022-12-16T08:35:08.092Z,18.50
2022-12-16T08:37:54.108Z,19.63
2022-12-16T08:40:43.033Z,20.33
2022-12-16T08:43:29.117Z,20.30
2022-12-16T08:46:15.336Z,20.53
2022-12-16T08:49:02.403Z,20.57
2022-12-16T08:51:48.638Z,20.07
2022-12-16T08:54:34.162Z,20.27
2022-12-16T08:57:20.250Z,20.13
2022-12-16T09:00:06.110Z,19.63
2022-12-16T09:02:51.659Z,21.07
2022-12-16T09:05:40.097Z,21.37
2022-12-16T09:08:26.288Z,20.40
2022-12-16T09:11:11.954Z,40.93
2022-12-16T09:13:58.696Z,39.83
2022-12-16T09:16:44.496Z,36.10
2022-12-16T09:19:30.352Z,19.73
2022-12-16T09:22:17.322Z,19.90
2022-12-16T09:25:03.198Z,18.93
2022-12-16T09:27:48.584Z,19.67
2022-12-16T09:30:34.258Z,19.40
2022-12-16T09:33:21.165Z,21.77
2022-12-16T09:36:26.739Z,20.20
2022-12-16T09:39:13.450Z,22.23
2022-12-16T09:42:02.352Z,20.83
2022-12-16T09:45:06.632Z,20.37
2022-12-16T09:48:06.707Z,19.50
2022-12-16T09:50:58.363Z,22.07
2022-12-16T09:53:46.918Z,20.13
2022-12-16T09:56:39.326Z,20.07
2022-12-16T09:59:33.165Z,21.17
2022-12-16T10:02:20.473Z,18.37
2022-12-16T10:05:10.681Z,21.13
2022-12-16T10:08:08.715Z,17.93
2022-12-16T10:11:10.471Z,19.80
2022-12-16T10:14:07.372Z,17.87
2022-12-16T10:17:09.754Z,20.23
2022-12-16T10:20:12.265Z,18.77
2022-12-16T10:23:08.946Z,17.40
2022-12-16T10:26:04.206Z,16.60
2022-12-16T10:29:05.031Z,17.90
2022-12-16T10:31:52.146Z,17.83
2022-12-16T10:34:45.562Z,42.33
2022-12-16T10:37:39.547Z,78.87
2022-12-16T10:40:33.775Z,21.53
2022-12-16T10:43:24.115Z,19.77
2022-12-16T10:46:15.262Z,17.40
2022-12-16T10:49:01.840Z,16.93
2022-12-16T10:51:48.741Z,17.33
2022-12-16T10:54:50.681Z,17.37
2022-12-16T10:57:51.187Z,18.50
2022-12-16T11:00:55.492Z,18.90
2022-12-16T11:03:47.988Z,17.00
2022-12-16T11:06:40.823Z,15.87
2022-12-16T11:09:48.309Z,16.67
2022-12-16T11:12:48.224Z,14.40
2022-12-16T11:15:43.216Z,16.27
2022-12-16T11:18:32.816Z,19.13
2022-12-16T11:21:36.775Z,18.90
2022-12-16T11:24:33.403Z,18.43
2022-12-16T11:27:21.902Z,20.70
2022-12-16T11:30:10.642Z,20.43
2022-12-16T11:32:59.222Z,19.00
2022-12-16T11:35:49.312Z,18.70
2022-12-16T11:38:47.888Z,18.27
2022-12-16T11:41:44.915Z,17.23
2022-12-16T11:44:41.149Z,27.10
2022-12-16T11:47:42.216Z,20.03
2022-12-16T11:50:35.728Z,17.53
2022-12-16T11:53:28.709Z,19.97
2022-12-16T11:56:19.147Z,22.77
2022-12-16T11:59:10.125Z,35.30
2022-12-16T12:02:03.889Z,19.20
2022-12-16T12:04:49.832Z,19.27
2022-12-16T12:07:57.490Z,19.17
2022-12-16T12:11:22.603Z,19.30
2022-12-16T12:14:28.807Z,19.10
2022-12-16T12:17:32.100Z,20.10
2022-12-16T12:20:45.241Z,20.03
2022-12-16T12:23:49.655Z,20.37
2022-12-16T12:26:45.734Z,22.23
2022-12-16T12:29:51.454Z,21.57
2022-12-16T12:32:51.892Z,20.33
2022-12-16T12:36:00.763Z,19.40
2022-12-16T12:38:59.138Z,20.97
2022-12-16T12:41:59.522Z,20.47
2022-12-16T12:45:04.104Z,18.90
2022-12-16T12:47:56.894Z,19.20
2022-12-16T12:50:53.137Z,20.00
2022-12-16T12:53:54.616Z,19.33
2022-12-16T12:56:58.805Z,19.83
2022-12-16T13:00:02.042Z,19.77
2022-12-16T13:03:01.309Z,18.20
2022-12-16T13:05:51.299Z,19.97
2022-12-16T13:09:16.823Z,19.20
2022-12-16T13:12:48.452Z,18.47
2022-12-16T13:15:53.529Z,20.13
2022-12-16T13:18:43.536Z,18.70
2022-12-16T13:22:04.924Z,19.53
2022-12-16T13:24:59.474Z,18.57
2022-12-16T13:28:04.045Z,26.87
2022-12-16T13:30:52.090Z,19.23
2022-12-16T13:33:47.741Z,17.97
2022-12-16T13:36:36.838Z,19.30
2022-12-16T13:39:42.826Z,19.23
2022-12-16T13:43:08.810Z,19.40
2022-12-16T13:46:01.512Z,19.37
2022-12-16T13:48:55.618Z,18.37
2022-12-16T13:52:19.874Z,19.53
2022-12-16T13:55:24.988Z,18.87
2022-12-16T13:58:20.923Z,17.40
2022-12-16T14:01:20.136Z,18.33
2022-12-16T14:04:09.546Z,17.93
2022-12-16T14:06:58.582Z,17.10
2022-12-16T14:09:52.869Z,15.70
2022-12-16T14:13:15.204Z,15.70
2022-12-16T14:16:18.729Z,15.00
2022-12-16T14:19:26.994Z,17.60
2022-12-16T14:22:33.253Z,19.13
2022-12-16T14:25:27.992Z,17.10
2022-12-16T14:28:16.988Z,16.50
2022-12-16T14:31:02.497Z,15.70
2022-12-16T14:33:48.526Z,15.07
2022-12-16T14:36:43.793Z,18.03
2022-12-16T14:39:32.289Z,17.50
2022-12-16T14:42:18.017Z,18.23
2022-12-16T14:45:06.915Z,17.73
2022-12-16T14:47:58.771Z,17.23
2022-12-16T14:50:48.394Z,19.33
2022-12-16T14:53:37.818Z,18.23
2022-12-16T14:56:37.039Z,18.00
2022-12-16T14:59:38.010Z,18.87
2022-12-16T15:02:46.510Z,18.33
2022-12-16T15:05:33.589Z,18.90
2022-12-16T15:08:19.739Z,17.10
2022-12-16T15:11:06.437Z,17.53
2022-12-16T15:13:57.750Z,19.13
2022-12-16T15:16:53.368Z,19.80
2022-12-16T15:19:43.045Z,17.70
2022-12-16T15:22:35.902Z,17.33
2022-12-16T15:25:22.422Z,18.67
2022-12-16T15:28:30.474Z,17.70
2022-12-16T15:31:31.843Z,17.23
2022-12-16T15:34:40.464Z,15.17
2022-12-16T15:37:41.876Z,15.47
2022-12-16T15:40:46.766Z,17.40
2022-12-16T15:43:57.339Z,15.60
2022-12-16T15:46:46.402Z,16.23
2022-12-16T15:49:42.636Z,16.80
2022-12-16T15:52:53.312Z,17.87
2022-12-16T15:55:48.000Z,17.43
2022-12-16T15:58:40.080Z,17.27
2022-12-16T16:01:26.668Z,18.87
2022-12-16T16:04:15.026Z,18.47
2022-12-16T16:07:06.557Z,19.60
2022-12-16T16:09:56.148Z,21.20
2022-12-16T16:12:44.295Z,20.63
2022-12-16T16:15:33.298Z,19.40
2022-12-16T16:18:24.427Z,20.23
2022-12-16T16:21:10.970Z,18.43
2022-12-16T16:23:56.520Z,18.77
2022-12-16T16:26:46.756Z,18.10
2022-12-16T16:29:32.495Z,18.43
2022-12-16T16:32:18.157Z,17.37
2022-12-16T16:35:04.046Z,17.83
2022-12-16T16:37:49.328Z,18.07
2022-12-16T16:40:45.678Z,17.00
2022-12-16T16:43:32.997Z,18.17
2022-12-16T16:46:19.185Z,18.67
2022-12-16T16:49:05.195Z,19.50
2022-12-16T16:51:50.813Z,18.87
2022-12-16T16:54:36.440Z,19.13
2022-12-16T16:57:22.214Z,19.03
2022-12-16T17:00:09.101Z,20.53
2022-12-16T17:02:54.964Z,19.83
2022-12-16T17:05:41.733Z,21.67
2022-12-16T17:08:27.112Z,17.77
2022-12-16T17:11:29.835Z,18.37
2022-12-16T17:14:15.473Z,19.43
2022-12-16T17:17:02.322Z,19.87
2022-12-16T17:19:47.918Z,19.23
2022-12-16T17:22:33.471Z,18.47
2022-12-16T17:25:19.328Z,18.30
2022-12-16T17:28:05.163Z,18.50
2022-12-16T17:30:50.759Z,19.37
2022-12-16T17:33:37.976Z,18.73
2022-12-16T17:36:28.503Z,20.87
2022-12-16T17:39:17.249Z,20.23
2022-12-16T17:42:03.197Z,22.90
2022-12-16T17:44:48.926Z,23.03
2022-12-16T17:47:35.243Z,22.40
2022-12-16T17:50:24.003Z,25.10
2022-12-16T17:53:13.073Z,22.37
2022-12-16T17:55:58.574Z,22.33
2022-12-16T17:58:52.789Z,29.27
2022-12-16T18:01:39.215Z,26.50
2022-12-16T18:04:25.695Z,25.57
2022-12-16T18:07:13.156Z,24.47
2022-12-16T18:09:58.633Z,24.93
2022-12-16T18:12:45.477Z,26.23
2022-12-16T18:15:31.234Z,26.63
2022-12-16T18:18:17.110Z,23.83
2022-12-16T18:21:03.137Z,23.73
2022-12-16T18:23:50.614Z,25.17
2022-12-16T18:26:36.652Z,24.87
2022-12-16T18:29:22.726Z,31.80
2022-12-16T18:32:08.799Z,25.30
2022-12-16T18:34:54.301Z,25.50
2022-12-16T18:37:40.144Z,24.70
2022-12-16T18:40:28.750Z,24.57
2022-12-16T18:43:14.625Z,23.97
2022-12-16T18:46:00.172Z,23.43
2022-12-16T18:48:47.003Z,24.13
2022-12-16T18:51:32.346Z,23.83
2022-12-16T18:54:18.083Z,23.17
2022-12-16T18:57:06.252Z,22.63
2022-12-16T18:59:51.954Z,24.23
2022-12-16T19:02:37.491Z,24.20
2022-12-16T19:05:23.683Z,24.27
2022-12-16T19:08:14.087Z,23.07
2022-12-16T19:11:00.382Z,23.83
2022-12-16T19:13:47.196Z,26.20
2022-12-16T19:16:32.775Z,23.13
2022-12-16T19:19:20.410Z,23.57
2022-12-16T19:22:06.599Z,25.37
2022-12-16T19:24:52.155Z,19.73
2022-12-16T19:27:37.704Z,20.97
2022-12-16T19:30:27.331Z,19.27
2022-12-16T19:33:12.971Z,18.80
2022-12-16T19:35:58.456Z,19.53
2022-12-16T19:38:43.781Z,18.60
2022-12-16T19:41:33.859Z,20.43
2022-12-16T19:44:20.269Z,20.53
2022-12-16T19:47:07.089Z,19.93
2022-12-16T19:49:52.611Z,18.97
2022-12-16T19:52:40.726Z,19.90
2022-12-16T19:55:27.142Z,20.10
2022-12-16T19:58:13.003Z,22.20
2022-12-16T20:00:58.634Z,22.57
2022-12-16T20:03:46.195Z,21.13
2022-12-16T20:06:32.375Z,20.93
2022-12-16T20:09:18.026Z,23.20
2022-12-16T20:12:03.915Z,23.63
2022-12-16T20:14:49.803Z,22.90
2022-12-16T20:17:35.297Z,20.73
2022-12-16T20:20:23.105Z,22.13
2022-12-16T20:23:08.757Z,20.03
2022-12-16T20:29:00.665Z,19.77
2022-12-16T20:31:47.916Z,19.53
2022-12-16T20:34:33.881Z,21.03
2022-12-16T20:37:21.062Z,19.50
2022-12-16T20:40:06.629Z,22.33
2022-12-16T20:45:57.520Z,20.80
2022-12-16T20:48:43.161Z,19.93
2022-12-16T20:51:29.206Z,19.70
2022-12-16T20:54:16.174Z,20.60
2022-12-16T20:57:02.047Z,20.27
2022-12-16T20:59:47.382Z,19.33
2022-12-16T21:02:34.217Z,21.33
2022-12-16T21:05:20.924Z,21.60
2022-12-16T21:08:20.685Z,21.00
2022-12-16T21:11:07.658Z,21.67
2022-12-16T21:13:56.447Z,20.60
2022-12-16T21:16:42.202Z,20.87
2022-12-16T21:19:33.101Z,20.27
2022-12-16T21:22:19.237Z,21.33
2022-12-16T21:25:04.909Z,21.17
2022-12-16T21:27:51.715Z,21.93
2022-12-16T21:30:38.219Z,21.87
2022-12-16T21:33:23.614Z,20.93
2022-12-16T21:36:12.111Z,20.27
2022-12-16T21:38:58.022Z,20.37
2022-12-16T21:41:43.498Z,21.77
2022-12-16T21:44:30.342Z,22.40
2022-12-16T21:47:15.904Z,20.13
2022-12-16T21:50:01.707Z,20.47
2022-12-16T21:52:47.663Z,20.00
2022-12-16T21:55:33.270Z,21.57
2022-12-16T21:58:18.843Z,21.67
2022-12-16T22:01:12.628Z,21.20
2022-12-16T22:03:58.191Z,21.57
2022-12-16T22:06:48.577Z,18.77
2022-12-16T22:09:34.699Z,22.20
2022-12-16T22:12:20.362Z,22.70
2022-12-16T22:15:05.957Z,21.17
2022-12-16T22:17:57.945Z,22.07
2022-12-16T22:20:44.186Z,20.87
2022-12-16T22:23:29.933Z,20.47
2022-12-16T22:26:16.599Z,20.17
2022-12-16T22:29:02.159Z,19.97
2022-12-16T22:31:47.998Z,19.07
2022-12-16T22:34:35.686Z,19.60
2022-12-16T22:37:21.334Z,21.27
2022-12-16T22:40:07.804Z,21.43
2022-12-16T22:42:53.307Z,19.97
2022-12-16T22:45:39.278Z,21.30
2022-12-16T22:48:25.266Z,21.47
2022-12-16T22:51:12.136Z,20.50
2022-12-16T22:53:57.948Z,21.20
2022-12-16T22:56:43.562Z,20.77
2022-12-16T22:59:29.066Z,20.20
2022-12-16T23:02:14.847Z,21.27
2022-12-16T23:05:00.471Z,19.13
2022-12-16T23:07:47.740Z,20.63
2022-12-16T23:10:33.423Z,20.67
2022-12-16T23:13:19.306Z,20.57
2022-12-16T23:16:04.944Z,21.70
2022-12-16T23:18:50.792Z,20.60
2022-12-16T23:21:38.498Z,22.60
2022-12-16T23:24:27.586Z,21.67
2022-12-16T23:27:13.597Z,20.37
2022-12-16T23:29:59.094Z,23.47
2022-12-16T23:32:30.905Z,20.80
2022-12-16T23:32:45.167Z,22.73
2022-12-16T23:35:31.078Z,20.97
2022-12-16T23:38:20.660Z,23.47
2022-12-16T23:41:13.059Z,21.33
2022-12-16T23:44:00.339Z,21.97
2022-12-16T23:46:46.301Z,21.37
2022-12-16T23:49:32.239Z,20.87
2022-12-16T23:52:18.016Z,21.37
2022-12-16T23:55:03.515Z,20.73
2022-12-16T23:57:50.475Z,21.47
